Time;durP1;ratioP1;P1;durP2;ratioP2;P2;SDS_P1;SDS_P2;PMS_P1;PMS_P2;Temp;Humidity;BMP_temperature;BMP_pressure;BME280_temperature;BME280_humidity;BME280_pressure;Samples;Min_cycle;Max_cycle;Signal;HPM_P1;HPM_P2
2022/07/16 00:03:23;;;;;;;6.70;4.05;;;;;;;16.79;72.32;94785.77;1656240;84;21153;-62
2022/07/16 00:05:50;;;;;;;5.33;3.90;;;;;;;16.79;72.49;94782.20;1654345;84;21437;-62
2022/07/16 00:08:18;;;;;;;6.62;5.03;;;;;;;16.79;72.61;94776.65;1626964;84;21640;-57
2022/07/16 00:10:45;;;;;;;6.97;4.65;;;;;;;16.81;72.81;94778.31;1660461;84;20930;-58
2022/07/16 00:13:14;;;;;;;10.60;5.20;;;;;;;16.85;72.92;94787.98;1661095;84;21113;-59
2022/07/16 00:15:42;;;;;;;10.65;5.22;;;;;;;16.86;72.50;94788.12;1647792;84;20993;-60
2022/07/16 00:20:56;;;;;;;8.73;4.80;;;;;;;16.85;72.37;94778.86;1647546;84;21660;-61
2022/07/16 00:23:24;;;;;;;6.78;4.28;;;;;;;16.81;72.49;94781.88;1656315;84;21486;-61
2022/07/16 00:25:52;;;;;;;8.43;3.60;;;;;;;16.80;72.37;94780.34;1663716;84;21430;-59
2022/07/16 00:28:19;;;;;;;7.92;4.60;;;;;;;16.81;71.61;94777.70;1658216;84;21001;-62
2022/07/16 00:30:47;;;;;;;5.60;4.03;;;;;;;16.80;71.22;94774.01;1653639;84;22484;-63
2022/07/16 00:33:15;;;;;;;10.78;5.10;;;;;;;16.79;71.97;94773.88;1661383;84;21683;-60
2022/07/16 00:35:42;;;;;;;6.60;5.17;;;;;;;16.77;72.94;94777.77;1636359;84;21458;-62
2022/07/16 00:38:10;;;;;;;12.95;4.75;;;;;;;16.73;73.41;94779.99;1656012;84;21458;-63
2022/07/16 00:40:37;;;;;;;8.08;4.60;;;;;;;16.66;73.92;94772.05;1654221;84;21048;-60
2022/07/16 00:43:12;;;;;;;7.10;4.42;;;;;;;16.61;74.32;94772.75;1627480;85;22406;-61
2022/07/16 00:45:39;;;;;;;6.55;4.90;;;;;;;16.61;74.27;94769.36;1661647;84;21059;-61
2022/07/16 00:48:07;;;;;;;10.82;5.50;;;;;;;16.63;74.43;94770.25;1661134;84;21094;-61
2022/07/16 00:50:36;;;;;;;9.10;5.80;;;;;;;16.64;74.75;94769.00;1654660;84;21102;-61
2022/07/16 00:53:04;;;;;;;10.13;5.67;;;;;;;16.64;74.88;94764.83;1655449;84;21041;-63
2022/07/16 00:55:31;;;;;;;11.65;5.92;;;;;;;16.62;75.09;94758.39;1654311;84;21045;-60
2022/07/16 00:57:59;;;;;;;7.72;5.12;;;;;;;16.58;75.28;94765.39;1661294;84;21631;-61
2022/07/16 01:00:27;;;;;;;11.10;5.97;;;;;;;16.55;75.39;94763.59;1656409;84;21024;-60
2022/07/16 01:02:54;;;;;;;10.43;5.62;;;;;;;16.53;75.37;94760.53;1657271;84;21808;-62
2022/07/16 01:05:22;;;;;;;11.38;4.92;;;;;;;16.51;75.66;94763.78;1662291;84;21487;-61
2022/07/16 01:07:50;;;;;;;9.95;5.28;;;;;;;16.53;75.99;94757.13;1657645;84;21117;-62
2022/07/16 01:10:18;;;;;;;16.15;5.40;;;;;;;16.53;76.14;94755.73;1659201;84;21002;-62
2022/07/16 01:12:47;;;;;;;6.53;5.03;;;;;;;16.56;76.12;94754.01;1657600;84;21458;-62
2022/07/16 01:15:14;;;;;;;13.03;4.67;;;;;;;16.54;75.96;94754.48;1655606;84;21447;-60
2022/07/16 01:17:43;;;;;;;6.78;4.30;;;;;;;16.56;75.72;94754.75;1620233;84;21518;-61
2022/07/16 01:20:11;;;;;;;5.92;4.50;;;;;;;16.57;75.66;94754.89;1652314;84;21587;-58
2022/07/16 01:22:39;;;;;;;8.63;4.92;;;;;;;16.51;76.10;94754.06;1654421;84;21482;-60
2022/07/16 01:25:10;;;;;;;9.40;5.55;;;;;;;16.48;76.54;94754.27;1657756;84;20990;-61
2022/07/16 01:27:38;;;;;;;8.00;4.65;;;;;;;16.46;76.76;94744.27;1659417;84;21107;-61
2022/07/16 01:30:08;;;;;;;5.05;4.47;;;;;;;16.46;76.85;94748.44;1656094;84;21002;-60
2022/07/16 01:32:37;;;;;;;9.40;4.53;;;;;;;16.46;76.83;94741.48;1655414;84;21438;-62
2022/07/16 01:35:06;;;;;;;5.42;4.10;;;;;;;16.46;76.81;94751.20;1653966;84;21065;-62
2022/07/16 01:37:34;;;;;;;5.37;4.35;;;;;;;16.46;76.81;94750.59;1654871;84;21523;-60
2022/07/16 01:40:01;;;;;;;7.55;4.70;;;;;;;16.42;76.69;94752.05;1654934;84;21882;-60
2022/07/16 01:42:28;;;;;;;6.53;4.85;;;;;;;16.41;76.79;94753.30;1661575;84;21463;-60
2022/07/16 01:44:56;;;;;;;5.58;4.40;;;;;;;16.42;76.65;94753.43;1656476;84;21069;-56
2022/07/16 01:47:25;;;;;;;9.48;4.92;;;;;;;16.39;76.67;94756.54;1630926;86;21568;-56
2022/07/16 01:49:54;;;;;;;10.32;5.15;;;;;;;16.35;76.35;94746.27;1653036;86;20974;-57
2022/07/16 01:52:22;;;;;;;5.15;4.50;;;;;;;16.31;76.70;94749.07;1607747;87;21328;-57
2022/07/16 01:54:52;;;;;;;7.12;4.37;;;;;;;16.28;77.00;94749.43;1648169;86;20974;-57
2022/07/16 01:57:21;;;;;;;9.75;5.45;;;;;;;16.27;77.01;94745.73;1646913;86;20974;-57
2022/07/16 01:59:50;;;;;;;8.20;4.92;;;;;;;16.25;77.20;94744.72;1628394;87;21073;-57
2022/07/16 02:02:18;;;;;;;7.53;4.67;;;;;;;16.24;77.17;94744.58;1661481;85;21104;-56
2022/07/16 02:04:46;;;;;;;7.55;5.25;;;;;;;16.23;77.05;94743.02;1653176;86;21877;-59
2022/07/16 02:07:14;;;;;;;8.98;5.00;;;;;;;16.24;76.94;94736.24;1651768;85;20965;-57
2022/07/16 02:09:44;;;;;;;10.40;5.20;;;;;;;16.26;76.97;94738.66;1650912;86;21017;-56
2022/07/16 02:12:13;;;;;;;9.50;5.40;;;;;;;16.30;77.10;94734.44;1648854;86;21073;-56
2022/07/16 02:14:42;;;;;;;6.95;5.20;;;;;;;16.34;77.24;94735.63;1648993;86;21033;-57
2022/07/16 02:17:10;;;;;;;8.18;4.85;;;;;;;16.36;77.25;94735.94;1646636;85;21961;-57
2022/07/16 02:19:40;;;;;;;8.50;5.65;;;;;;;16.37;77.27;94736.08;1649153;86;20953;-57
2022/07/16 02:22:09;;;;;;;10.23;5.35;;;;;;;16.39;76.94;94741.27;1649276;86;20982;-57
2022/07/16 02:24:37;;;;;;;10.30;5.00;;;;;;;16.37;76.90;94736.08;1647426;86;21183;-57
2022/07/16 02:27:05;;;;;;;5.58;4.10;;;;;;;16.36;76.77;94732.52;1651218;85;20985;-56
2022/07/16 02:29:34;;;;;;;8.75;5.08;;;;;;;16.34;76.60;94730.08;1644330;86;21943;-58
2022/07/16 02:32:02;;;;;;;9.35;5.05;;;;;;;16.28;76.64;94732.64;1649677;85;21108;-56
2022/07/16 02:34:30;;;;;;;9.88;4.80;;;;;;;16.26;76.59;94734.50;1649502;86;21143;-56
2022/07/16 02:36:58;;;;;;;6.20;4.33;;;;;;;16.23;76.59;94730.52;1650776;86;21061;-57
2022/07/16 02:39:27;;;;;;;7.42;5.25;;;;;;;16.18;76.85;94736.16;1612770;87;21061;-56
2022/07/16 02:41:55;;;;;;;6.85;5.58;;;;;;;16.09;77.36;94733.49;1617691;87;21139;-56
2022/07/16 02:44:24;;;;;;;8.43;5.50;;;;;;;16.02;77.67;94738.67;1650066;85;21159;-56
2022/07/16 02:46:52;;;;;;;6.60;5.40;;;;;;;15.99;78.03;94734.87;1651362;86;20982;-57
2022/07/16 02:49:21;;;;;;;11.70;5.47;;;;;;;15.97;78.31;94731.04;1653970;86;21537;-57
2022/07/16 02:51:49;;;;;;;6.20;5.22;;;;;;;15.96;78.41;94731.67;1645907;86;21515;-56
2022/07/16 02:54:18;;;;;;;6.62;5.12;;;;;;;15.91;78.24;94732.34;1648747;86;21803;-57
2022/07/16 02:56:46;;;;;;;5.35;4.83;;;;;;;15.83;78.36;94729.83;1648279;86;21517;-58
2022/07/16 02:59:15;;;;;;;8.53;4.78;;;;;;;15.79;78.40;94723.72;1648436;86;21592;-57
2022/07/16 03:01:43;;;;;;;8.88;4.70;;;;;;;15.78;78.28;94734.67;1654523;85;20990;-56
2022/07/16 03:04:11;;;;;;;8.25;5.67;;;;;;;15.77;78.57;94725.44;1648238;86;21077;-57
2022/07/16 03:06:39;;;;;;;20.30;5.58;;;;;;;15.82;78.77;94733.07;1648301;86;21317;-57
2022/07/16 03:09:08;;;;;;;13.30;6.33;;;;;;;15.85;78.54;94727.34;1649923;86;20902;-58
2022/07/16 03:11:37;;;;;;;13.53;6.42;;;;;;;15.85;78.58;94727.94;1651814;86;21046;-57
2022/07/16 03:14:05;;;;;;;14.78;5.70;;;;;;;15.86;78.28;94724.70;1634378;86;21194;-57
2022/07/16 03:16:33;;;;;;;9.08;5.92;;;;;;;15.87;78.06;94727.62;1649993;86;21592;-57
2022/07/16 03:19:01;;;;;;;19.12;6.80;;;;;;;15.87;77.86;94719.93;1649972;86;21321;-57
2022/07/16 03:21:29;;;;;;;12.35;6.10;;;;;;;15.85;77.96;94730.72;1652975;85;21015;-57
2022/07/16 03:23:57;;;;;;;33.00;9.08;;;;;;;15.81;78.65;94728.77;1653209;86;21959;-57
2022/07/16 03:26:25;;;;;;;10.25;5.45;;;;;;;15.72;79.25;94724.09;1651344;85;21160;-57
2022/07/16 03:28:54;;;;;;;11.95;5.40;;;;;;;15.69;79.57;94725.06;1649626;86;21266;-57
2022/07/16 03:31:22;;;;;;;11.73;5.75;;;;;;;15.67;79.62;94728.94;1648361;85;21287;-57
2022/07/16 03:33:50;;;;;;;9.75;6.20;;;;;;;15.62;79.70;94731.01;1644341;86;20978;-58
2022/07/16 03:36:18;;;;;;;18.57;6.47;;;;;;;15.55;79.95;94733.41;1612427;86;21449;-58
2022/07/16 03:39:04;;;;;;;11.85;6.85;;;;;;;15.52;80.18;94723.27;1655571;86;21615;-56
2022/07/16 03:41:34;;;;;;;14.98;6.35;;;;;;;15.52;80.34;94731.59;1650961;85;21085;-57
2022/07/16 03:44:04;;;;;;;21.85;6.03;;;;;;;15.53;80.31;94726.94;1644803;86;21117;-57
2022/07/16 03:46:32;;;;;;;29.87;7.80;;;;;;;15.56;80.31;94723.20;1632423;86;21442;-57
2022/07/16 03:49:00;;;;;;;13.05;6.50;;;;;;;15.62;80.33;94723.30;1652429;85;21024;-56
2022/07/16 03:51:28;;;;;;;9.18;5.60;;;;;;;15.67;80.66;94719.23;1626922;86;21016;-56
2022/07/16 03:53:56;;;;;;;8.55;6.42;;;;;;;15.70;80.14;94723.81;1632575;86;21072;-56
2022/07/16 03:56:25;;;;;;;10.10;5.65;;;;;;;15.68;79.90;94724.92;1656066;85;21239;-56
2022/07/16 03:58:53;;;;;;;11.55;5.53;;;;;;;15.67;80.02;94735.88;1652161;86;20982;-56
2022/07/16 04:01:21;;;;;;;7.97;5.72;;;;;;;15.68;80.03;94724.92;1649109;85;21026;-57
2022/07/16 04:03:51;;;;;;;10.48;5.67;;;;;;;15.71;79.81;94730.89;1629127;87;21466;-56
2022/07/16 04:06:19;;;;;;;15.95;6.70;;;;;;;15.69;79.74;94733.38;1653387;86;21595;-56
2022/07/16 04:08:47;;;;;;;20.95;6.03;;;;;;;15.73;79.93;94731.17;1651780;86;21924;-57
2022/07/16 04:11:15;;;;;;;19.62;6.08;;;;;;;15.75;79.64;94732.09;1629757;86;21406;-57
2022/07/16 04:13:44;;;;;;;15.58;5.28;;;;;;;15.75;79.67;94735.61;1648860;85;21022;-58
2022/07/16 04:16:11;;;;;;;12.90;5.50;;;;;;;15.77;79.57;94730.34;1648799;86;21200;-56
2022/07/16 04:18:40;;;;;;;21.90;6.30;;;;;;;15.76;79.65;94732.98;1652887;86;21028;-57
2022/07/16 04:21:09;;;;;;;10.15;6.15;;;;;;;15.78;79.50;94737.45;1658342;85;21161;-56
2022/07/16 04:23:37;;;;;;;19.30;6.60;;;;;;;15.80;79.57;94734.18;1658667;86;21025;-56
2022/07/16 04:26:05;;;;;;;14.18;4.90;;;;;;;15.85;79.40;94732.88;1649459;86;21100;-57
2022/07/16 04:28:35;;;;;;;20.30;6.12;;;;;;;15.89;78.99;94732.05;1647847;86;21006;-57
2022/07/16 04:31:03;;;;;;;7.80;5.40;;;;;;;15.91;78.83;94735.11;1648861;87;21026;-57
2022/07/16 04:33:31;;;;;;;14.28;4.90;;;;;;;15.96;78.65;94734.45;1646485;86;21237;-56
2022/07/16 04:35:59;;;;;;;7.55;5.03;;;;;;;16.04;77.91;94723.69;1646221;86;21220;-56
2022/07/16 04:38:28;;;;;;;8.33;5.60;;;;;;;16.06;77.18;94724.00;1647494;85;21068;-56
2022/07/16 04:40:55;;;;;;;8.85;5.75;;;;;;;16.06;77.09;94721.97;1627928;85;21041;-59
2022/07/16 04:43:23;;;;;;;14.23;5.42;;;;;;;16.14;77.31;94732.83;1633567;86;21055;-57
2022/07/16 04:45:51;;;;;;;8.08;4.33;;;;;;;16.28;77.15;94732.77;1648030;85;21437;-57
2022/07/16 04:48:21;;;;;;;13.95;4.90;;;;;;;16.44;76.55;94725.94;1650594;86;21084;-56
2022/07/16 04:50:49;;;;;;;13.43;5.90;;;;;;;16.55;76.14;94718.51;1626073;87;21010;-56
2022/07/16 04:53:17;;;;;;;9.53;5.20;;;;;;;16.66;75.94;94715.88;1648376;86;21021;-57
2022/07/16 04:55:46;;;;;;;8.15;5.25;;;;;;;16.74;75.89;94716.23;1650994;85;21044;-57
2022/07/16 04:58:14;;;;;;;7.37;5.33;;;;;;;16.81;75.51;94716.57;1653877;86;21207;-57
2022/07/16 05:00:43;;;;;;;9.50;5.75;;;;;;;16.85;74.82;94712.17;1649015;85;21013;-58
2022/07/16 05:03:11;;;;;;;8.73;4.58;;;;;;;16.85;74.40;94714.95;1650011;86;21046;-57
2022/07/16 05:05:39;;;;;;;13.38;5.03;;;;;;;16.86;73.30;94709.53;1650350;86;21506;-57
2022/07/16 05:08:08;;;;;;;16.45;5.50;;;;;;;16.83;73.25;94709.12;1635166;86;21084;-57
2022/07/16 05:10:39;;;;;;;6.22;4.50;;;;;;;16.84;73.71;94707.87;1648053;86;20983;-56
2022/07/16 05:13:10;;;;;;;10.45;5.55;;;;;;;16.90;73.40;94712.88;1649783;85;21510;-56
2022/07/16 05:15:39;;;;;;;7.97;5.08;;;;;;;16.97;73.14;94709.05;1647456;85;20985;-57
2022/07/16 05:18:08;;;;;;;10.75;5.15;;;;;;;17.06;72.91;94706.74;1648468;85;21121;-56
2022/07/16 05:20:38;;;;;;;12.35;5.33;;;;;;;17.10;72.56;94704.50;1617072;86;21495;-57
2022/07/16 05:23:05;;;;;;;12.98;5.72;;;;;;;17.15;72.30;94704.56;1649491;86;21123;-57
2022/07/16 05:25:34;;;;;;;11.90;5.30;;;;;;;17.20;71.92;94702.45;1647224;87;21482;-57
2022/07/16 05:28:02;;;;;;;6.80;5.15;;;;;;;17.28;71.46;94700.76;1649945;86;21488;-56
2022/07/16 05:30:35;;;;;;;9.33;4.55;;;;;;;17.41;70.47;94704.56;1647776;86;21103;-61
2022/07/16 05:33:06;;;;;;;9.98;4.28;;;;;;;17.53;69.85;94707.59;1652102;86;20942;-57
2022/07/16 05:35:35;;;;;;;8.88;4.47;;;;;;;17.62;68.46;94704.65;1651570;86;21231;-56
2022/07/16 05:38:03;;;;;;;18.90;7.10;;;;;;;17.67;68.13;94697.72;1612741;84;21113;-63
2022/07/16 05:40:32;;;;;;;6.33;3.35;;;;;;;17.77;67.14;94705.25;1658879;84;21108;-63
2022/07/16 05:43:01;;;;;;;9.23;3.30;;;;;;;17.86;65.69;94698.88;1644380;84;21223;-60
2022/07/16 05:45:29;;;;;;;7.55;3.27;;;;;;;17.93;64.33;94697.66;1654394;84;21533;-63
2022/07/16 05:47:56;;;;;;;8.75;3.40;;;;;;;17.99;63.74;94685.95;1661010;84;21201;-60
2022/07/16 05:50:24;;;;;;;8.13;2.90;;;;;;;18.07;63.20;94689.80;1657471;84;21640;-62
2022/07/16 05:52:52;;;;;;;6.08;2.62;;;;;;;18.15;62.73;94690.88;1656868;84;21444;-63
2022/07/16 05:55:19;;;;;;;7.58;3.00;;;;;;;18.23;61.64;94685.09;1651017;84;21411;-58
2022/07/16 05:57:49;;;;;;;4.83;3.15;;;;;;;18.33;60.50;94685.06;1656323;84;21140;-59
2022/07/16 06:00:16;;;;;;;6.05;3.08;;;;;;;18.42;60.67;94685.48;1662161;84;21847;-59
2022/07/16 06:02:43;;;;;;;4.28;2.50;;;;;;;18.52;59.84;94680.59;1635809;85;21445;-63
2022/07/16 06:05:11;;;;;;;6.22;3.40;;;;;;;18.60;59.12;94681.63;1658596;84;21069;-59
2022/07/16 06:07:38;;;;;;;7.03;3.08;;;;;;;18.67;58.77;94680.39;1655663;84;21130;-61
2022/07/16 06:10:06;;;;;;;8.33;3.30;;;;;;;18.71;58.84;94679.52;1653602;84;21020;-60
2022/07/16 06:12:33;;;;;;;8.73;3.35;;;;;;;18.79;59.24;94681.33;1659318;84;21082;-59
2022/07/16 06:15:01;;;;;;;8.10;2.67;;;;;;;18.92;59.26;94680.23;1664137;84;21107;-59
2022/07/16 06:17:28;;;;;;;6.45;3.10;;;;;;;19.03;57.70;94684.44;1651678;84;21506;-61
2022/07/16 06:19:56;;;;;;;6.92;2.92;;;;;;;19.13;57.01;94680.16;1652271;84;21024;-63
2022/07/16 06:22:24;;;;;;;4.90;2.95;;;;;;;19.20;56.09;94679.69;1646864;84;21097;-63
2022/07/16 06:24:52;;;;;;;6.65;2.60;;;;;;;19.25;55.81;94674.77;1658043;84;21139;-61
2022/07/16 06:27:20;;;;;;;7.08;2.52;;;;;;;19.30;56.57;94674.02;1632422;84;21491;-60
2022/07/16 06:29:47;;;;;;;5.20;3.17;;;;;;;19.37;55.87;94678.34;1662003;83;21073;-63
2022/07/16 06:32:15;;;;;;;6.50;2.98;;;;;;;19.40;54.33;94672.48;1628817;85;21086;-61
2022/07/16 06:34:43;;;;;;;14.05;9.00;;;;;;;19.42;54.18;94676.95;1633190;84;21456;-62
2022/07/16 06:37:10;;;;;;;11.25;3.17;;;;;;;19.46;54.74;94674.67;1655747;84;21910;-61
2022/07/16 06:39:41;;;;;;;8.18;3.10;;;;;;;19.56;54.42;94668.95;1655371;84;22387;-61
2022/07/16 06:42:08;;;;;;;5.58;2.72;;;;;;;19.66;53.68;94655.50;1649613;84;21200;-63
2022/07/16 06:44:40;;;;;;;5.90;3.17;;;;;;;19.74;53.62;94664.25;1656851;84;21088;-61
2022/07/16 06:47:08;;;;;;;4.67;3.08;;;;;;;19.82;54.04;94665.91;1656281;84;21106;-61
2022/07/16 06:49:35;;;;;;;5.05;3.05;;;;;;;19.90;54.14;94664.88;1653311;84;21141;-63
2022/07/16 06:52:03;;;;;;;6.37;3.17;;;;;;;19.95;53.90;94657.78;1657952;84;21028;-64
2022/07/16 06:54:31;;;;;;;6.80;3.15;;;;;;;20.04;53.73;94661.09;1657449;84;21127;-67
2022/07/16 06:56:58;;;;;;;11.03;3.02;;;;;;;20.14;53.74;94662.33;1657527;85;21096;-60
2022/07/16 06:59:26;;;;;;;4.12;2.52;;;;;;;20.19;53.95;94660.19;1659559;84;21758;-60
2022/07/16 07:01:54;;;;;;;7.42;2.67;;;;;;;20.24;53.36;94661.58;1654515;84;21102;-63
2022/07/16 07:04:21;;;;;;;7.78;2.85;;;;;;;20.31;53.68;94665.85;1660238;84;21009;-58
2022/07/16 07:06:48;;;;;;;4.40;3.05;;;;;;;20.40;52.92;94660.00;1661487;84;21522;-63
2022/07/16 07:09:15;;;;;;;5.03;2.50;;;;;;;20.47;53.32;94659.45;1661662;84;21069;-61
2022/07/16 07:11:44;;;;;;;4.17;2.58;;;;;;;20.58;52.48;94662.23;1659037;84;21034;-64
2022/07/16 07:14:12;;;;;;;6.37;2.47;;;;;;;20.66;51.79;94661.80;1657662;84;21679;-64
2022/07/16 07:16:41;;;;;;;5.60;2.85;;;;;;;20.71;52.67;94649.86;1654973;84;21079;-61
2022/07/16 07:19:08;;;;;;;8.53;2.87;;;;;;;20.77;52.48;94660.38;1658153;84;21506;-59
2022/07/16 07:21:36;;;;;;;4.70;3.00;;;;;;;20.81;52.68;94656.66;1658000;84;21487;-61
2022/07/16 07:24:05;;;;;;;5.20;2.58;;;;;;;20.88;52.75;94651.94;1639572;84;21190;-63
2022/07/16 07:26:33;;;;;;;6.60;2.60;;;;;;;21.00;52.15;94653.42;1656333;84;21307;-63
2022/07/16 07:29:00;;;;;;;3.62;2.77;;;;;;;21.14;52.45;94649.53;1658358;84;21487;-58
2022/07/16 07:31:28;;;;;;;7.70;2.62;;;;;;;21.22;52.22;94647.69;1654696;85;20989;-57
2022/07/16 07:33:56;;;;;;;3.40;2.80;;;;;;;21.30;52.16;94643.08;1648705;85;21002;-58
2022/07/16 07:36:25;;;;;;;4.75;2.98;;;;;;;21.45;51.91;94645.63;1655757;85;21069;-60
2022/07/16 07:38:54;;;;;;;5.97;3.10;;;;;;;21.60;51.61;94643.86;1652140;85;21205;-58
2022/07/16 07:41:23;;;;;;;3.98;2.30;;;;;;;21.68;51.31;94647.66;1661651;85;21113;-58
2022/07/16 07:43:51;;;;;;;6.60;3.12;;;;;;;21.63;51.48;94644.27;1655272;85;20999;-58
2022/07/16 07:46:21;;;;;;;5.08;3.10;;;;;;;21.52;51.71;94640.11;1652727;85;21029;-58
2022/07/16 07:48:51;;;;;;;3.27;2.60;;;;;;;21.44;51.07;94643.36;1656781;85;21053;-58
2022/07/16 07:51:21;;;;;;;4.47;2.70;;;;;;;21.41;51.39;94633.95;1657139;85;21482;-58
2022/07/16 07:53:50;;;;;;;7.47;3.22;;;;;;;21.45;50.98;94628.09;1656407;85;21156;-58
2022/07/16 07:56:18;;;;;;;6.00;3.25;;;;;;;21.52;51.33;94626.11;1653147;85;21109;-58
2022/07/16 07:58:46;;;;;;;8.85;3.45;;;;;;;21.60;50.34;94628.45;1656323;85;21010;-59
2022/07/16 08:01:14;;;;;;;9.85;3.10;;;;;;;21.68;52.11;94626.00;1657581;85;21109;-57
2022/07/16 08:03:44;;;;;;;8.30;3.00;;;;;;;21.78;51.21;94618.02;1622663;85;40184;-59
2022/07/16 08:06:14;;;;;;;5.97;2.95;;;;;;;21.85;51.21;94617.47;1660018;85;21084;-58
2022/07/16 08:08:42;;;;;;;6.75;3.15;;;;;;;21.93;51.46;94618.39;1653392;85;21069;-58
2022/07/16 08:11:11;;;;;;;4.90;2.85;;;;;;;22.05;50.53;94614.33;1647999;85;21082;-56
2022/07/16 08:13:39;;;;;;;7.72;3.20;;;;;;;22.14;49.68;94609.02;1649414;85;21113;-58
2022/07/16 08:16:08;;;;;;;4.10;2.85;;;;;;;22.17;49.91;94606.56;1661461;84;21525;-58
2022/07/16 08:18:37;;;;;;;4.30;3.17;;;;;;;22.26;50.90;94602.77;1651999;85;21085;-58
2022/07/16 08:21:05;;;;;;;3.70;2.72;;;;;;;22.42;51.92;94600.45;1652577;85;20974;-59
2022/07/16 08:26:21;;;;;;;6.35;2.75;;;;;;;22.77;50.06;94593.89;1652277;85;20954;-58
2022/07/16 08:28:50;;;;;;;3.72;2.90;;;;;;;22.93;49.09;94600.70;1635148;85;21780;-58
2022/07/16 08:31:18;;;;;;;5.35;2.67;;;;;;;22.98;48.63;94594.25;1649490;85;21049;-57
2022/07/16 08:33:47;;;;;;;6.12;2.98;;;;;;;22.92;48.98;94587.97;1637128;85;21160;-58
2022/07/16 08:36:15;;;;;;;7.58;3.45;;;;;;;22.80;49.81;94592.20;1664185;85;21065;-59
2022/07/16 08:38:43;;;;;;;4.75;2.92;;;;;;;22.68;49.83;94595.02;1657003;84;21665;-58
2022/07/16 08:41:11;;;;;;;6.20;2.95;;;;;;;22.55;49.92;94592.14;1650840;85;21915;-58
2022/07/16 08:43:39;;;;;;;6.58;3.17;;;;;;;22.42;49.99;94585.66;1650011;85;20970;-59
2022/07/16 08:46:10;;;;;;;8.60;4.20;;;;;;;22.24;49.95;94582.92;1615779;85;21142;-58
2022/07/16 08:48:38;;;;;;;6.95;2.60;;;;;;;22.14;49.86;94586.60;1653720;85;21122;-60
2022/07/16 08:51:10;;;;;;;4.40;2.83;;;;;;;22.05;50.69;94587.71;1654412;84;21652;-63
2022/07/16 08:53:38;;;;;;;4.17;3.08;;;;;;;21.99;50.75;94589.70;1605761;87;21801;-62
2022/07/16 08:56:06;;;;;;;12.88;3.92;;;;;;;21.95;50.98;94592.02;1657119;84;21058;-60
2022/07/16 08:58:33;;;;;;;5.50;3.15;;;;;;;21.92;51.22;94593.06;1656419;84;21114;-63
2022/07/16 09:01:01;;;;;;;6.50;3.05;;;;;;;21.94;51.57;94593.30;1657199;84;21202;-61
2022/07/16 09:03:29;;;;;;;5.15;3.33;;;;;;;21.97;51.13;94593.64;1641609;84;21171;-63
2022/07/16 09:05:56;;;;;;;8.60;3.62;;;;;;;22.02;51.06;94585.19;1659096;84;21901;-60
2022/07/16 09:08:23;;;;;;;6.70;3.47;;;;;;;22.12;51.02;94586.38;1652384;84;21007;-63
2022/07/16 09:10:50;;;;;;;5.67;3.10;;;;;;;22.28;51.28;94584.77;1650452;84;21028;-63
2022/07/16 09:13:18;;;;;;;9.08;3.45;;;;;;;22.42;51.83;94583.63;1660886;84;21002;-60
2022/07/16 09:15:46;;;;;;;10.63;3.20;;;;;;;22.61;51.37;94591.42;1651471;84;21261;-64
2022/07/16 09:18:20;;;;;;;9.23;3.58;;;;;;;22.76;50.31;94586.13;1644920;84;21946;-62
2022/07/16 09:21:00;;;;;;;5.45;2.75;;;;;;;22.81;50.00;94592.31;1659983;84;21889;-62
2022/07/16 09:23:38;;;;;;;7.12;3.15;;;;;;;22.86;50.09;94594.27;1659967;84;20997;-62
2022/07/16 09:26:08;;;;;;;5.50;3.08;;;;;;;22.85;49.48;94596.97;1651410;84;21104;-62
2022/07/16 09:28:46;;;;;;;14.40;3.62;;;;;;;22.76;49.87;94593.78;1654406;84;21165;-64
2022/07/16 09:31:40;;;;;;;10.53;3.50;;;;;;;22.69;49.93;94604.20;1656814;84;21109;-66
2022/07/16 09:34:13;;;;;;;7.75;3.08;;;;;;;22.60;50.15;94603.93;1660627;84;21417;-64
2022/07/16 09:36:57;;;;;;;6.97;3.35;;;;;;;22.54;50.47;94594.84;1656882;84;21058;-67
2022/07/16 09:39:25;;;;;;;6.20;2.95;;;;;;;22.49;49.93;94590.69;1644429;84;21262;-62
2022/07/16 09:41:53;;;;;;;10.20;4.08;;;;;;;22.41;50.08;94601.73;1635843;84;21751;-62
2022/07/16 09:44:26;;;;;;;9.30;2.72;;;;;;;22.36;51.26;94598.33;1660000;84;21926;-63
2022/07/16 09:47:09;;;;;;;6.62;3.62;;;;;;;22.33;51.01;94590.95;1656525;84;21064;-62
2022/07/16 09:49:40;;;;;;;6.75;3.52;;;;;;;22.31;50.72;94593.53;1663077;85;21068;-62
2022/07/16 09:52:08;;;;;;;10.60;3.42;;;;;;;22.36;50.71;94587.13;1657986;84;21076;-63
2022/07/16 09:54:37;;;;;;;7.00;3.00;;;;;;;22.53;50.29;94577.90;1656362;84;21113;-66
2022/07/16 09:57:15;;;;;;;5.78;3.15;;;;;;;22.79;50.43;94573.08;1654572;84;21261;-65
2022/07/16 09:59:43;;;;;;;9.65;3.08;;;;;;;23.07;49.53;94581.25;1659177;84;21526;-63
2022/07/16 10:02:11;;;;;;;10.43;2.87;;;;;;;23.23;48.73;94577.44;1658120;84;21062;-62
2022/07/16 10:04:39;;;;;;;5.87;2.92;;;;;;;23.33;48.54;94577.17;1659870;84;20979;-65
2022/07/16 10:07:07;;;;;;;3.98;2.83;;;;;;;23.43;48.58;94564.89;1663017;84;21019;-65
2022/07/16 10:09:35;;;;;;;8.70;2.67;;;;;;;23.53;48.94;94561.81;1656812;84;21133;-62
2022/07/16 10:12:09;;;;;;;8.95;4.10;;;;;;;23.66;49.68;94561.19;1654347;84;21525;-60
2022/07/16 10:14:39;;;;;;;4.87;3.27;;;;;;;23.89;49.67;94560.94;1651480;84;21015;-62
2022/07/16 10:17:25;;;;;;;7.45;3.72;;;;;;;24.14;49.70;94564.42;1640826;84;21609;-63
2022/07/16 10:20:02;;;;;;;5.78;3.00;;;;;;;24.38;50.40;94555.03;1654077;84;21075;-64
2022/07/16 10:22:34;;;;;;;6.22;3.25;;;;;;;24.64;49.50;94556.43;1655328;84;21178;-60
2022/07/16 10:25:16;;;;;;;8.58;3.02;;;;;;;24.73;49.05;94556.73;1651622;84;21094;-62
2022/07/16 10:27:44;;;;;;;4.05;2.70;;;;;;;24.68;48.84;94554.81;1657592;84;21010;-63
2022/07/16 10:30:23;;;;;;;3.95;2.92;;;;;;;24.55;47.56;94551.27;1656313;83;21033;-61
2022/07/16 10:33:16;;;;;;;6.80;3.00;;;;;;;24.48;47.97;94548.42;1659566;84;21521;-65
2022/07/16 10:35:50;;;;;;;5.78;3.40;;;;;;;24.49;48.56;94549.16;1659157;84;21224;-63
2022/07/16 10:38:27;;;;;;;4.95;3.40;;;;;;;24.58;46.96;94547.36;1640252;85;21022;-64
2022/07/16 10:41:13;;;;;;;3.65;3.08;;;;;;;24.70;46.71;94542.99;1652019;84;21052;-64
2022/07/16 10:43:40;;;;;;;5.20;3.30;;;;;;;24.88;47.00;94541.45;1644561;84;21018;-63
2022/07/16 10:46:10;;;;;;;8.98;3.65;;;;;;;25.27;47.98;94539.94;1622920;84;21832;-66
2022/07/16 10:48:43;;;;;;;5.83;3.55;;;;;;;25.54;47.35;94536.35;1654201;84;21806;-64
2022/07/16 10:51:20;;;;;;;5.65;2.92;;;;;;;26.06;43.29;94533.34;1652152;84;21058;-63
2022/07/16 10:54:02;;;;;;;6.60;2.85;;;;;;;26.02;42.58;94540.63;1656967;84;21145;-63
2022/07/16 10:56:42;;;;;;;7.42;3.25;;;;;;;26.23;42.33;94535.06;1659597;84;21032;-61
2022/07/16 10:59:11;;;;;;;4.33;2.80;;;;;;;26.53;42.30;94529.61;1645881;84;21661;-62
2022/07/16 11:01:40;;;;;;;6.33;3.30;;;;;;;26.97;40.23;94525.48;1652322;84;21205;-65
2022/07/16 11:04:08;;;;;;;8.90;3.12;;;;;;;27.33;40.45;94527.60;1660059;84;21017;-62
2022/07/16 11:06:37;;;;;;;8.23;2.85;;;;;;;27.68;39.64;94516.81;1654190;84;21750;-63
2022/07/16 11:09:06;;;;;;;6.95;3.45;;;;;;;27.79;38.85;94517.88;1660134;84;20985;-65
2022/07/16 11:11:38;;;;;;;5.50;3.10;;;;;;;27.96;38.12;94508.92;1660506;84;21028;-62
2022/07/16 11:14:07;;;;;;;7.62;3.33;;;;;;;27.90;37.62;94514.68;1658297;84;21221;-59
2022/07/16 11:16:35;;;;;;;8.28;3.45;;;;;;;28.07;36.81;94526.17;1660023;84;21540;-60
2022/07/16 11:19:03;;;;;;;10.88;3.25;;;;;;;28.08;37.08;94513.53;1657632;84;21501;-62
2022/07/16 11:21:31;;;;;;;6.65;2.98;;;;;;;27.82;37.41;94511.11;1649392;84;21042;-62
2022/07/16 11:24:00;;;;;;;14.85;4.10;;;;;;;27.55;38.21;94503.52;1654565;84;21023;-62
2022/07/16 11:26:28;;;;;;;7.40;3.40;;;;;;;27.17;38.58;94502.04;1659262;84;21287;-62
2022/07/16 11:28:59;;;;;;;3.58;3.08;;;;;;;26.65;39.64;94506.81;1650493;84;21225;-62
2022/07/16 11:31:33;;;;;;;6.05;3.55;;;;;;;26.21;40.19;94511.52;1657182;84;21009;-64
2022/07/16 11:34:04;;;;;;;6.60;3.60;;;;;;;25.84;41.22;94509.84;1653707;84;21091;-64
2022/07/16 11:36:37;;;;;;;7.95;3.52;;;;;;;25.61;41.64;94506.06;1659072;83;21022;-63
2022/07/16 11:39:07;;;;;;;6.10;3.30;;;;;;;25.45;42.32;94508.67;1661098;84;22101;-64
2022/07/16 11:41:37;;;;;;;6.05;3.92;;;;;;;25.30;42.29;94500.07;1658511;84;21010;-66
2022/07/16 11:44:18;;;;;;;7.55;3.60;;;;;;;25.21;42.68;94507.58;1658931;84;21025;-62
2022/07/16 11:46:51;;;;;;;6.67;4.05;;;;;;;25.16;43.26;94501.40;1651837;84;21021;-61
2022/07/16 11:49:36;;;;;;;5.28;3.83;;;;;;;25.14;43.61;94508.97;1645252;84;21072;-65